sensor_id;sensor_type;location;lat;lon;timestamp;P1;durP1;ratioP1;P2;durP2;ratioP2
71490;SDS011;59307;50.060;9.150;2023-08-06T00:00:18;10.23;;;3.57;;
71490;SDS011;59307;50.060;9.150;2023-08-06T00:02:43;6.00;;;3.60;;
71490;SDS011;59307;50.060;9.150;2023-08-06T00:05:08;7.47;;;4.00;;
71490;SDS011;59307;50.060;9.150;2023-08-06T00:07:33;7.37;;;3.70;;
71490;SDS011;59307;50.060;9.150;2023-08-06T00:09:59;7.27;;;4.10;;
71490;SDS011;59307;50.060;9.150;2023-08-06T00:12:24;9.50;;;4.30;;
71490;SDS011;59307;50.060;9.150;2023-08-06T00:14:52;5.83;;;3.77;;
71490;SDS011;59307;50.060;9.150;2023-08-06T00:17:18;5.75;;;3.67;;
71490;SDS011;59307;50.060;9.150;2023-08-06T00:19:43;6.10;;;4.13;;
71490;SDS011;59307;50.060;9.150;2023-08-06T00:22:08;5.30;;;3.40;;
71490;SDS011;59307;50.060;9.150;2023-08-06T00:24:34;6.60;;;4.07;;
71490;SDS011;59307;50.060;9.150;2023-08-06T00:26:59;8.20;;;3.70;;
71490;SDS011;59307;50.060;9.150;2023-08-06T00:29:24;6.20;;;3.80;;
71490;SDS011;59307;50.060;9.150;2023-08-06T00:31:50;5.60;;;3.70;;
71490;SDS011;59307;50.060;9.150;2023-08-06T00:34:15;5.33;;;3.53;;
71490;SDS011;59307;50.060;9.150;2023-08-06T00:36:40;6.10;;;3.60;;
71490;SDS011;59307;50.060;9.150;2023-08-06T00:39:05;5.70;;;3.60;;
71490;SDS011;59307;50.060;9.150;2023-08-06T00:41:32;6.60;;;3.70;;
71490;SDS011;59307;50.060;9.150;2023-08-06T00:43:57;11.17;;;3.90;;
71490;SDS011;59307;50.060;9.150;2023-08-06T00:46:22;5.23;;;3.60;;
71490;SDS011;59307;50.060;9.150;2023-08-06T00:48:47;6.43;;;3.60;;
71490;SDS011;59307;50.060;9.150;2023-08-06T00:51:13;6.27;;;3.90;;
71490;SDS011;59307;50.060;9.150;2023-08-06T00:53:38;8.07;;;3.63;;
71490;SDS011;59307;50.060;9.150;2023-08-06T00:56:04;5.43;;;3.53;;
71490;SDS011;59307;50.060;9.150;2023-08-06T00:58:29;6.27;;;3.90;;
71490;SDS011;59307;50.060;9.150;2023-08-06T01:00:55;6.23;;;3.50;;
71490;SDS011;59307;50.060;9.150;2023-08-06T01:03:20;5.03;;;3.30;;
71490;SDS011;59307;50.060;9.150;2023-08-06T01:05:45;6.70;;;3.83;;
71490;SDS011;59307;50.060;9.150;2023-08-06T01:08:28;7.20;;;3.97;;
71490;SDS011;59307;50.060;9.150;2023-08-06T01:15:56;6.13;;;3.60;;
71490;SDS011;59307;50.060;9.150;2023-08-06T01:18:23;7.50;;;4.13;;
71490;SDS011;59307;50.060;9.150;2023-08-06T01:20:48;7.97;;;3.83;;
71490;SDS011;59307;50.060;9.150;2023-08-06T01:23:14;7.20;;;3.50;;
71490;SDS011;59307;50.060;9.150;2023-08-06T01:25:43;6.43;;;3.37;;
71490;SDS011;59307;50.060;9.150;2023-08-06T01:28:11;5.85;;;3.40;;
71490;SDS011;59307;50.060;9.150;2023-08-06T01:30:41;5.85;;;3.30;;
71490;SDS011;59307;50.060;9.150;2023-08-06T01:33:06;6.50;;;3.90;;
71490;SDS011;59307;50.060;9.150;2023-08-06T01:35:33;6.55;;;3.80;;
71490;SDS011;59307;50.060;9.150;2023-08-06T01:38:00;7.80;;;3.60;;
71490;SDS011;59307;50.060;9.150;2023-08-06T01:40:25;6.15;;;3.85;;
71490;SDS011;59307;50.060;9.150;2023-08-06T01:42:53;9.00;;;4.70;;
71490;SDS011;59307;50.060;9.150;2023-08-06T01:45:18;7.23;;;3.77;;
71490;SDS011;59307;50.060;9.150;2023-08-06T01:47:43;7.40;;;4.53;;
71490;SDS011;59307;50.060;9.150;2023-08-06T01:50:08;7.33;;;4.10;;
71490;SDS011;59307;50.060;9.150;2023-08-06T01:52:34;5.93;;;3.33;;
71490;SDS011;59307;50.060;9.150;2023-08-06T01:54:59;5.90;;;3.70;;
71490;SDS011;59307;50.060;9.150;2023-08-06T01:57:24;5.93;;;3.50;;
71490;SDS011;59307;50.060;9.150;2023-08-06T01:59:49;6.23;;;3.53;;
71490;SDS011;59307;50.060;9.150;2023-08-06T02:02:14;7.17;;;3.87;;
71490;SDS011;59307;50.060;9.150;2023-08-06T02:04:40;7.20;;;3.47;;
71490;SDS011;59307;50.060;9.150;2023-08-06T02:07:05;6.03;;;3.53;;
71490;SDS011;59307;50.060;9.150;2023-08-06T02:09:30;8.70;;;3.70;;
71490;SDS011;59307;50.060;9.150;2023-08-06T02:11:55;9.10;;;3.70;;
71490;SDS011;59307;50.060;9.150;2023-08-06T02:14:20;7.50;;;3.40;;
71490;SDS011;59307;50.060;9.150;2023-08-06T02:16:46;7.03;;;3.40;;
71490;SDS011;59307;50.060;9.150;2023-08-06T02:19:11;7.53;;;3.80;;
71490;SDS011;59307;50.060;9.150;2023-08-06T02:21:36;5.93;;;3.63;;
71490;SDS011;59307;50.060;9.150;2023-08-06T02:24:01;8.50;;;4.50;;
71490;SDS011;59307;50.060;9.150;2023-08-06T02:26:27;7.43;;;4.53;;
71490;SDS011;59307;50.060;9.150;2023-08-06T02:28:52;6.53;;;3.90;;
71490;SDS011;59307;50.060;9.150;2023-08-06T02:31:17;6.03;;;3.50;;
71490;SDS011;59307;50.060;9.150;2023-08-06T02:33:42;6.43;;;4.00;;
71490;SDS011;59307;50.060;9.150;2023-08-06T02:36:07;8.00;;;3.80;;
71490;SDS011;59307;50.060;9.150;2023-08-06T02:38:33;5.53;;;3.60;;
71490;SDS011;59307;50.060;9.150;2023-08-06T02:40:58;6.97;;;4.00;;
71490;SDS011;59307;50.060;9.150;2023-08-06T02:43:23;6.63;;;4.23;;
71490;SDS011;59307;50.060;9.150;2023-08-06T02:45:48;4.97;;;3.43;;
71490;SDS011;59307;50.060;9.150;2023-08-06T02:48:14;5.20;;;3.50;;
71490;SDS011;59307;50.060;9.150;2023-08-06T02:50:40;7.93;;;3.30;;
71490;SDS011;59307;50.060;9.150;2023-08-06T02:53:06;6.60;;;3.60;;
71490;SDS011;59307;50.060;9.150;2023-08-06T02:55:31;6.20;;;3.90;;
71490;SDS011;59307;50.060;9.150;2023-08-06T02:57:56;5.33;;;3.20;;
71490;SDS011;59307;50.060;9.150;2023-08-06T03:00:22;7.40;;;3.80;;
71490;SDS011;59307;50.060;9.150;2023-08-06T03:02:47;6.53;;;3.90;;
71490;SDS011;59307;50.060;9.150;2023-08-06T03:05:12;6.47;;;3.43;;
71490;SDS011;59307;50.060;9.150;2023-08-06T03:07:37;5.20;;;3.40;;
71490;SDS011;59307;50.060;9.150;2023-08-06T03:10:03;7.50;;;3.80;;
71490;SDS011;59307;50.060;9.150;2023-08-06T03:12:28;9.70;;;3.93;;
71490;SDS011;59307;50.060;9.150;2023-08-06T03:14:53;6.97;;;3.90;;
71490;SDS011;59307;50.060;9.150;2023-08-06T03:17:18;8.40;;;3.67;;
71490;SDS011;59307;50.060;9.150;2023-08-06T03:19:44;5.23;;;3.37;;
71490;SDS011;59307;50.060;9.150;2023-08-06T03:22:09;6.70;;;3.53;;
71490;SDS011;59307;50.060;9.150;2023-08-06T03:24:34;7.07;;;3.70;;
71490;SDS011;59307;50.060;9.150;2023-08-06T03:26:59;7.30;;;3.47;;
71490;SDS011;59307;50.060;9.150;2023-08-06T03:29:24;8.87;;;3.50;;
71490;SDS011;59307;50.060;9.150;2023-08-06T03:31:50;7.23;;;3.60;;
71490;SDS011;59307;50.060;9.150;2023-08-06T03:34:16;5.38;;;3.30;;
71490;SDS011;59307;50.060;9.150;2023-08-06T03:36:41;6.93;;;3.80;;
71490;SDS011;59307;50.060;9.150;2023-08-06T03:39:07;6.10;;;3.50;;
71490;SDS011;59307;50.060;9.150;2023-08-06T03:41:32;6.20;;;3.43;;
71490;SDS011;59307;50.060;9.150;2023-08-06T03:43:57;6.80;;;3.27;;
71490;SDS011;59307;50.060;9.150;2023-08-06T03:46:22;7.33;;;3.30;;
71490;SDS011;59307;50.060;9.150;2023-08-06T03:48:47;6.50;;;3.43;;
71490;SDS011;59307;50.060;9.150;2023-08-06T03:51:12;7.43;;;3.27;;
71490;SDS011;59307;50.060;9.150;2023-08-06T03:53:38;6.33;;;3.40;;
71490;SDS011;59307;50.060;9.150;2023-08-06T03:56:03;8.63;;;3.50;;
71490;SDS011;59307;50.060;9.150;2023-08-06T03:58:28;6.33;;;3.47;;
71490;SDS011;59307;50.060;9.150;2023-08-06T04:01:00;7.37;;;3.60;;
71490;SDS011;59307;50.060;9.150;2023-08-06T04:03:25;5.70;;;3.40;;
71490;SDS011;59307;50.060;9.150;2023-08-06T04:05:51;9.85;;;3.75;;
71490;SDS011;59307;50.060;9.150;2023-08-06T04:08:16;7.50;;;4.00;;
71490;SDS011;59307;50.060;9.150;2023-08-06T04:10:41;11.27;;;3.80;;
71490;SDS011;59307;50.060;9.150;2023-08-06T04:13:06;8.83;;;3.57;;
71490;SDS011;59307;50.060;9.150;2023-08-06T04:15:33;5.90;;;3.00;;
71490;SDS011;59307;50.060;9.150;2023-08-06T04:17:58;7.13;;;3.60;;
71490;SDS011;59307;50.060;9.150;2023-08-06T04:20:23;5.83;;;3.30;;
71490;SDS011;59307;50.060;9.150;2023-08-06T04:22:48;6.63;;;3.53;;
71490;SDS011;59307;50.060;9.150;2023-08-06T04:25:14;8.47;;;3.60;;
71490;SDS011;59307;50.060;9.150;2023-08-06T04:27:39;8.02;;;3.45;;
71490;SDS011;59307;50.060;9.150;2023-08-06T04:30:06;7.00;;;3.37;;
71490;SDS011;59307;50.060;9.150;2023-08-06T04:32:32;6.13;;;3.42;;
71490;SDS011;59307;50.060;9.150;2023-08-06T04:34:57;6.63;;;3.53;;
71490;SDS011;59307;50.060;9.150;2023-08-06T04:37:22;7.63;;;3.70;;
71490;SDS011;59307;50.060;9.150;2023-08-06T04:39:47;6.00;;;3.30;;
71490;SDS011;59307;50.060;9.150;2023-08-06T04:42:12;6.10;;;3.67;;
71490;SDS011;59307;50.060;9.150;2023-08-06T04:44:38;5.80;;;3.40;;
71490;SDS011;59307;50.060;9.150;2023-08-06T04:47:03;6.57;;;3.30;;
71490;SDS011;59307;50.060;9.150;2023-08-06T04:49:28;6.87;;;3.50;;
71490;SDS011;59307;50.060;9.150;2023-08-06T04:51:53;6.40;;;3.00;;
71490;SDS011;59307;50.060;9.150;2023-08-06T04:54:19;5.30;;;3.20;;
71490;SDS011;59307;50.060;9.150;2023-08-06T04:56:44;7.70;;;3.20;;
71490;SDS011;59307;50.060;9.150;2023-08-06T04:59:09;8.67;;;3.40;;
71490;SDS011;59307;50.060;9.150;2023-08-06T05:01:34;6.73;;;3.60;;
71490;SDS011;59307;50.060;9.150;2023-08-06T05:03:59;5.93;;;2.90;;
71490;SDS011;59307;50.060;9.150;2023-08-06T05:06:25;6.67;;;3.57;;
71490;SDS011;59307;50.060;9.150;2023-08-06T05:08:50;5.57;;;3.17;;
71490;SDS011;59307;50.060;9.150;2023-08-06T05:11:15;5.80;;;3.03;;
71490;SDS011;59307;50.060;9.150;2023-08-06T05:13:40;7.93;;;3.37;;
71490;SDS011;59307;50.060;9.150;2023-08-06T05:16:05;6.57;;;2.90;;
71490;SDS011;59307;50.060;9.150;2023-08-06T05:18:31;6.03;;;2.85;;
71490;SDS011;59307;50.060;9.150;2023-08-06T05:20:56;5.50;;;3.10;;
71490;SDS011;59307;50.060;9.150;2023-08-06T05:23:22;5.37;;;2.67;;
71490;SDS011;59307;50.060;9.150;2023-08-06T05:25:47;4.30;;;2.43;;
71490;SDS011;59307;50.060;9.150;2023-08-06T05:28:12;7.03;;;2.50;;
71490;SDS011;59307;50.060;9.150;2023-08-06T05:30:40;7.70;;;2.17;;
71490;SDS011;59307;50.060;9.150;2023-08-06T05:33:06;4.97;;;2.38;;
71490;SDS011;59307;50.060;9.150;2023-08-06T05:35:31;6.10;;;2.10;;
71490;SDS011;59307;50.060;9.150;2023-08-06T05:37:56;5.80;;;2.47;;
71490;SDS011;59307;50.060;9.150;2023-08-06T05:40:21;4.37;;;2.10;;
71490;SDS011;59307;50.060;9.150;2023-08-06T05:42:46;4.13;;;2.30;;
71490;SDS011;59307;50.060;9.150;2023-08-06T05:45:12;7.50;;;2.43;;
71490;SDS011;59307;50.060;9.150;2023-08-06T05:47:37;4.83;;;2.17;;
71490;SDS011;59307;50.060;9.150;2023-08-06T05:50:02;4.67;;;1.90;;
71490;SDS011;59307;50.060;9.150;2023-08-06T05:52:27;4.73;;;2.30;;
71490;SDS011;59307;50.060;9.150;2023-08-06T05:54:53;5.33;;;2.40;;
71490;SDS011;59307;50.060;9.150;2023-08-06T05:57:18;5.60;;;2.50;;
71490;SDS011;59307;50.060;9.150;2023-08-06T05:59:43;3.70;;;2.27;;
71490;SDS011;59307;50.060;9.150;2023-08-06T06:02:08;7.40;;;2.30;;
71490;SDS011;59307;50.060;9.150;2023-08-06T06:04:34;4.00;;;2.17;;
71490;SDS011;59307;50.060;9.150;2023-08-06T06:06:59;6.13;;;2.40;;
71490;SDS011;59307;50.060;9.150;2023-08-06T06:09:24;5.37;;;2.10;;
71490;SDS011;59307;50.060;9.150;2023-08-06T06:11:49;5.67;;;2.30;;
71490;SDS011;59307;50.060;9.150;2023-08-06T06:14:15;4.87;;;2.30;;
71490;SDS011;59307;50.060;9.150;2023-08-06T06:16:40;4.07;;;2.17;;
71490;SDS011;59307;50.060;9.150;2023-08-06T06:19:05;4.10;;;2.10;;
71490;SDS011;59307;50.060;9.150;2023-08-06T06:21:31;3.00;;;1.50;;
71490;SDS011;59307;50.060;9.150;2023-08-06T06:23:56;3.57;;;1.50;;
71490;SDS011;59307;50.060;9.150;2023-08-06T06:26:21;5.78;;;1.45;;
71490;SDS011;59307;50.060;9.150;2023-08-06T06:28:47;4.70;;;2.00;;
71490;SDS011;59307;50.060;9.150;2023-08-06T06:31:12;3.90;;;1.80;;
71490;SDS011;59307;50.060;9.150;2023-08-06T06:33:37;3.87;;;1.70;;
71490;SDS011;59307;50.060;9.150;2023-08-06T06:36:02;5.20;;;1.60;;
71490;SDS011;59307;50.060;9.150;2023-08-06T06:38:32;4.22;;;1.58;;
71490;SDS011;59307;50.060;9.150;2023-08-06T06:40:57;4.80;;;1.47;;
71490;SDS011;59307;50.060;9.150;2023-08-06T06:43:23;2.83;;;1.47;;
71490;SDS011;59307;50.060;9.150;2023-08-06T06:45:58;1.37;;;1.00;;
71490;SDS011;59307;50.060;9.150;2023-08-06T06:48:24;1.40;;;1.10;;
71490;SDS011;59307;50.060;9.150;2023-08-06T06:50:49;1.50;;;1.00;;
71490;SDS011;59307;50.060;9.150;2023-08-06T06:53:14;2.40;;;1.10;;
71490;SDS011;59307;50.060;9.150;2023-08-06T06:55:40;2.13;;;1.17;;
71490;SDS011;59307;50.060;9.150;2023-08-06T06:58:05;1.50;;;1.20;;
71490;SDS011;59307;50.060;9.150;2023-08-06T07:00:30;3.17;;;1.50;;
71490;SDS011;59307;50.060;9.150;2023-08-06T07:02:55;2.20;;;1.40;;
71490;SDS011;59307;50.060;9.150;2023-08-06T07:05:20;2.90;;;1.30;;
71490;SDS011;59307;50.060;9.150;2023-08-06T07:07:46;2.00;;;1.13;;
71490;SDS011;59307;50.060;9.150;2023-08-06T07:10:11;1.67;;;1.20;;
71490;SDS011;59307;50.060;9.150;2023-08-06T07:12:36;2.77;;;1.30;;
71490;SDS011;59307;50.060;9.150;2023-08-06T07:15:02;3.07;;;1.30;;
71490;SDS011;59307;50.060;9.150;2023-08-06T07:17:28;2.35;;;1.15;;
71490;SDS011;59307;50.060;9.150;2023-08-06T07:19:53;2.77;;;1.53;;
71490;SDS011;59307;50.060;9.150;2023-08-06T07:22:18;1.63;;;1.13;;
71490;SDS011;59307;50.060;9.150;2023-08-06T07:24:43;1.30;;;1.00;;
71490;SDS011;59307;50.060;9.150;2023-08-06T07:27:08;1.33;;;0.90;;
71490;SDS011;59307;50.060;9.150;2023-08-06T07:29:33;3.17;;;1.50;;
71490;SDS011;59307;50.060;9.150;2023-08-06T07:31:59;3.07;;;1.30;;
71490;SDS011;59307;50.060;9.150;2023-08-06T07:34:24;3.20;;;1.30;;
71490;SDS011;59307;50.060;9.150;2023-08-06T07:36:50;2.30;;;1.20;;
71490;SDS011;59307;50.060;9.150;2023-08-06T07:39:15;2.33;;;1.10;;
71490;SDS011;59307;50.060;9.150;2023-08-06T07:41:41;3.70;;;1.10;;
71490;SDS011;59307;50.060;9.150;2023-08-06T07:44:06;2.10;;;1.10;;
71490;SDS011;59307;50.060;9.150;2023-08-06T07:46:32;2.50;;;1.40;;
71490;SDS011;59307;50.060;9.150;2023-08-06T07:48:57;1.40;;;1.00;;
71490;SDS011;59307;50.060;9.150;2023-08-06T07:51:22;2.70;;;1.30;;
71490;SDS011;59307;50.060;9.150;2023-08-06T07:53:47;1.80;;;1.10;;
71490;SDS011;59307;50.060;9.150;2023-08-06T07:56:12;1.57;;;1.20;;
71490;SDS011;59307;50.060;9.150;2023-08-06T07:58:38;1.70;;;1.10;;
71490;SDS011;59307;50.060;9.150;2023-08-06T08:01:03;1.53;;;1.10;;
71490;SDS011;59307;50.060;9.150;2023-08-06T08:03:28;1.97;;;1.07;;
71490;SDS011;59307;50.060;9.150;2023-08-06T08:05:54;1.70;;;1.20;;
71490;SDS011;59307;50.060;9.150;2023-08-06T08:08:22;2.78;;;1.30;;
71490;SDS011;59307;50.060;9.150;2023-08-06T08:10:47;2.70;;;1.30;;
71490;SDS011;59307;50.060;9.150;2023-08-06T08:13:12;1.50;;;1.40;;
71490;SDS011;59307;50.060;9.150;2023-08-06T08:15:38;1.77;;;1.10;;
71490;SDS011;59307;50.060;9.150;2023-08-06T08:18:03;2.37;;;1.40;;
71490;SDS011;59307;50.060;9.150;2023-08-06T08:20:28;2.03;;;1.30;;
71490;SDS011;59307;50.060;9.150;2023-08-06T08:22:57;2.38;;;1.40;;
71490;SDS011;59307;50.060;9.150;2023-08-06T08:25:22;3.00;;;1.27;;
71490;SDS011;59307;50.060;9.150;2023-08-06T08:27:47;1.00;;;0.90;;
71490;SDS011;59307;50.060;9.150;2023-08-06T08:30:12;1.60;;;1.10;;
71490;SDS011;59307;50.060;9.150;2023-08-06T08:32:37;1.43;;;1.10;;
71490;SDS011;59307;50.060;9.150;2023-08-06T08:35:03;1.40;;;1.30;;
71490;SDS011;59307;50.060;9.150;2023-08-06T08:37:28;2.30;;;0.97;;
71490;SDS011;59307;50.060;9.150;2023-08-06T08:39:53;1.13;;;0.97;;
71490;SDS011;59307;50.060;9.150;2023-08-06T08:42:18;1.53;;;1.00;;
71490;SDS011;59307;50.060;9.150;2023-08-06T08:44:44;2.27;;;1.10;;
71490;SDS011;59307;50.060;9.150;2023-08-06T08:47:10;1.43;;;1.17;;
71490;SDS011;59307;50.060;9.150;2023-08-06T08:49:35;1.65;;;1.10;;
71490;SDS011;59307;50.060;9.150;2023-08-06T08:52:01;1.60;;;1.10;;
71490;SDS011;59307;50.060;9.150;2023-08-06T08:54:27;4.90;;;1.20;;
71490;SDS011;59307;50.060;9.150;2023-08-06T08:56:53;2.00;;;1.20;;
71490;SDS011;59307;50.060;9.150;2023-08-06T08:59:20;1.92;;;1.00;;
71490;SDS011;59307;50.060;9.150;2023-08-06T09:01:45;1.40;;;1.00;;
71490;SDS011;59307;50.060;9.150;2023-08-06T09:04:15;2.33;;;1.50;;
71490;SDS011;59307;50.060;9.150;2023-08-06T09:06:40;1.73;;;1.00;;
71490;SDS011;59307;50.060;9.150;2023-08-06T09:09:08;2.70;;;1.00;;
71490;SDS011;59307;50.060;9.150;2023-08-06T09:11:36;1.15;;;0.90;;
71490;SDS011;59307;50.060;9.150;2023-08-06T09:14:06;2.30;;;1.20;;
71490;SDS011;59307;50.060;9.150;2023-08-06T09:16:32;2.00;;;1.25;;
71490;SDS011;59307;50.060;9.150;2023-08-06T09:19:00;4.30;;;1.10;;
71490;SDS011;59307;50.060;9.150;2023-08-06T09:21:31;1.83;;;1.13;;
71490;SDS011;59307;50.060;9.150;2023-08-06T09:23:56;3.17;;;1.20;;
71490;SDS011;59307;50.060;9.150;2023-08-06T09:26:23;2.10;;;1.20;;
71490;SDS011;59307;50.060;9.150;2023-08-06T09:28:49;2.83;;;1.10;;
71490;SDS011;59307;50.060;9.150;2023-08-06T09:31:17;1.30;;;1.10;;
71490;SDS011;59307;50.060;9.150;2023-08-06T09:33:42;2.40;;;1.37;;
71490;SDS011;59307;50.060;9.150;2023-08-06T09:36:12;1.40;;;1.00;;
71490;SDS011;59307;50.060;9.150;2023-08-06T09:38:38;1.80;;;1.17;;
71490;SDS011;59307;50.060;9.150;2023-08-06T09:41:04;2.65;;;1.17;;
71490;SDS011;59307;50.060;9.150;2023-08-06T09:43:29;1.40;;;1.00;;
71490;SDS011;59307;50.060;9.150;2023-08-06T09:45:55;1.43;;;0.90;;
71490;SDS011;59307;50.060;9.150;2023-08-06T09:48:20;1.37;;;1.00;;
71490;SDS011;59307;50.060;9.150;2023-08-06T09:50:49;4.38;;;1.00;;
71490;SDS011;59307;50.060;9.150;2023-08-06T09:53:17;1.95;;;1.00;;
71490;SDS011;59307;50.060;9.150;2023-08-06T09:55:43;1.38;;;0.90;;
71490;SDS011;59307;50.060;9.150;2023-08-06T09:58:09;1.97;;;1.00;;
71490;SDS011;59307;50.060;9.150;2023-08-06T10:00:35;2.07;;;1.10;;
71490;SDS011;59307;50.060;9.150;2023-08-06T10:03:00;1.10;;;1.00;;
71490;SDS011;59307;50.060;9.150;2023-08-06T10:05:25;1.85;;;1.00;;
71490;SDS011;59307;50.060;9.150;2023-08-06T10:07:51;2.53;;;1.00;;
71490;SDS011;59307;50.060;9.150;2023-08-06T10:10:16;1.90;;;1.10;;
71490;SDS011;59307;50.060;9.150;2023-08-06T10:12:48;1.30;;;1.00;;
71490;SDS011;59307;50.060;9.150;2023-08-06T10:15:15;1.05;;;0.85;;
71490;SDS011;59307;50.060;9.150;2023-08-06T10:17:41;1.42;;;1.00;;
71490;SDS011;59307;50.060;9.150;2023-08-06T10:20:07;1.00;;;0.90;;
71490;SDS011;59307;50.060;9.150;2023-08-06T10:22:33;1.15;;;1.05;;
71490;SDS011;59307;50.060;9.150;2023-08-06T10:24:59;1.13;;;1.00;;
71490;SDS011;59307;50.060;9.150;2023-08-06T10:27:33;1.07;;;0.70;;
71490;SDS011;59307;50.060;9.150;2023-08-06T10:32:46;1.92;;;1.10;;
71490;SDS011;59307;50.060;9.150;2023-08-06T10:35:27;1.08;;;0.90;;
71490;SDS011;59307;50.060;9.150;2023-08-06T10:37:53;0.70;;;0.70;;
71490;SDS011;59307;50.060;9.150;2023-08-06T10:40:21;1.80;;;0.80;;
71490;SDS011;59307;50.060;9.150;2023-08-06T10:42:46;1.40;;;1.10;;
71490;SDS011;59307;50.060;9.150;2023-08-06T10:45:15;0.70;;;0.70;;
71490;SDS011;59307;50.060;9.150;2023-08-06T10:47:41;0.83;;;0.80;;
71490;SDS011;59307;50.060;9.150;2023-08-06T10:50:07;2.53;;;0.70;;
71490;SDS011;59307;50.060;9.150;2023-08-06T10:52:32;1.67;;;0.83;;
71490;SDS011;59307;50.060;9.150;2023-08-06T10:54:58;2.10;;;0.67;;
71490;SDS011;59307;50.060;9.150;2023-08-06T10:57:23;1.50;;;0.67;;
71490;SDS011;59307;50.060;9.150;2023-08-06T10:59:49;1.43;;;0.60;;
71490;SDS011;59307;50.060;9.150;2023-08-06T11:02:14;2.40;;;0.63;;
71490;SDS011;59307;50.060;9.150;2023-08-06T11:04:39;2.13;;;0.70;;
71490;SDS011;59307;50.060;9.150;2023-08-06T11:07:06;1.25;;;0.80;;
71490;SDS011;59307;50.060;9.150;2023-08-06T11:09:31;2.15;;;0.70;;
71490;SDS011;59307;50.060;9.150;2023-08-06T11:11:57;1.03;;;0.70;;
71490;SDS011;59307;50.060;9.150;2023-08-06T11:14:22;0.93;;;0.60;;
71490;SDS011;59307;50.060;9.150;2023-08-06T11:16:47;1.47;;;1.00;;
71490;SDS011;59307;50.060;9.150;2023-08-06T11:19:12;2.43;;;0.73;;
71490;SDS011;59307;50.060;9.150;2023-08-06T11:21:40;0.95;;;0.70;;
71490;SDS011;59307;50.060;9.150;2023-08-06T11:24:05;1.80;;;0.80;;
71490;SDS011;59307;50.060;9.150;2023-08-06T11:26:30;1.00;;;0.90;;
71490;SDS011;59307;50.060;9.150;2023-08-06T11:28:55;1.73;;;0.90;;
71490;SDS011;59307;50.060;9.150;2023-08-06T11:31:21;2.47;;;0.80;;
71490;SDS011;59307;50.060;9.150;2023-08-06T11:33:47;2.05;;;1.20;;
71490;SDS011;59307;50.060;9.150;2023-08-06T11:36:12;1.13;;;0.90;;
71490;SDS011;59307;50.060;9.150;2023-08-06T11:38:37;1.30;;;0.97;;
71490;SDS011;59307;50.060;9.150;2023-08-06T11:41:02;2.83;;;0.80;;
71490;SDS011;59307;50.060;9.150;2023-08-06T11:43:29;1.63;;;0.90;;
71490;SDS011;59307;50.060;9.150;2023-08-06T11:45:55;0.93;;;0.73;;
71490;SDS011;59307;50.060;9.150;2023-08-06T11:48:21;1.23;;;0.70;;
71490;SDS011;59307;50.060;9.150;2023-08-06T11:50:46;0.97;;;0.80;;
71490;SDS011;59307;50.060;9.150;2023-08-06T11:53:12;0.90;;;0.80;;
71490;SDS011;59307;50.060;9.150;2023-08-06T11:55:37;1.60;;;1.20;;
71490;SDS011;59307;50.060;9.150;2023-08-06T11:58:03;1.00;;;0.80;;
71490;SDS011;59307;50.060;9.150;2023-08-06T12:00:29;1.42;;;0.90;;
71490;SDS011;59307;50.060;9.150;2023-08-06T12:02:54;1.87;;;0.90;;
71490;SDS011;59307;50.060;9.150;2023-08-06T12:05:20;0.93;;;0.83;;
71490;SDS011;59307;50.060;9.150;2023-08-06T12:07:49;1.60;;;0.80;;
71490;SDS011;59307;50.060;9.150;2023-08-06T12:10:14;3.55;;;1.00;;
71490;SDS011;59307;50.060;9.150;2023-08-06T12:12:40;0.70;;;0.70;;
71490;SDS011;59307;50.060;9.150;2023-08-06T12:15:05;1.23;;;0.90;;
71490;SDS011;59307;50.060;9.150;2023-08-06T12:17:31;0.90;;;0.77;;
71490;SDS011;59307;50.060;9.150;2023-08-06T12:19:56;1.88;;;1.00;;
71490;SDS011;59307;50.060;9.150;2023-08-06T12:22:22;0.70;;;0.60;;
71490;SDS011;59307;50.060;9.150;2023-08-06T12:24:47;2.50;;;0.80;;
71490;SDS011;59307;50.060;9.150;2023-08-06T12:27:13;1.93;;;0.87;;
71490;SDS011;59307;50.060;9.150;2023-08-06T12:29:46;1.05;;;0.68;;
71490;SDS011;59307;50.060;9.150;2023-08-06T12:32:11;1.40;;;0.80;;
71490;SDS011;59307;50.060;9.150;2023-08-06T12:34:40;0.70;;;0.70;;
71490;SDS011;59307;50.060;9.150;2023-08-06T12:37:05;2.10;;;0.80;;
71490;SDS011;59307;50.060;9.150;2023-08-06T12:39:32;0.82;;;0.70;;
71490;SDS011;59307;50.060;9.150;2023-08-06T12:41:57;1.90;;;0.70;;
71490;SDS011;59307;50.060;9.150;2023-08-06T12:44:26;0.60;;;0.60;;
71490;SDS011;59307;50.060;9.150;2023-08-06T12:46:51;0.77;;;0.70;;
71490;SDS011;59307;50.060;9.150;2023-08-06T12:49:17;1.13;;;0.55;;
71490;SDS011;59307;50.060;9.150;2023-08-06T12:51:42;0.50;;;0.50;;
71490;SDS011;59307;50.060;9.150;2023-08-06T12:54:08;0.70;;;0.63;;
71490;SDS011;59307;50.060;9.150;2023-08-06T12:56:33;0.93;;;0.60;;
71490;SDS011;59307;50.060;9.150;2023-08-06T12:58:59;1.10;;;0.70;;
71490;SDS011;59307;50.060;9.150;2023-08-06T13:01:24;2.20;;;0.80;;
71490;SDS011;59307;50.060;9.150;2023-08-06T13:03:49;1.00;;;0.60;;
71490;SDS011;59307;50.060;9.150;2023-08-06T13:06:14;0.97;;;0.70;;
71490;SDS011;59307;50.060;9.150;2023-08-06T13:08:39;0.73;;;0.60;;
71490;SDS011;59307;50.060;9.150;2023-08-06T13:11:05;1.95;;;0.80;;
71490;SDS011;59307;50.060;9.150;2023-08-06T13:13:30;2.07;;;0.70;;
71490;SDS011;59307;50.060;9.150;2023-08-06T13:15:55;1.77;;;0.90;;
71490;SDS011;59307;50.060;9.150;2023-08-06T13:18:20;1.43;;;0.60;;
71490;SDS011;59307;50.060;9.150;2023-08-06T13:20:46;2.23;;;0.70;;
71490;SDS011;59307;50.060;9.150;2023-08-06T13:23:13;0.82;;;0.60;;
71490;SDS011;59307;50.060;9.150;2023-08-06T13:25:41;2.50;;;0.50;;
71490;SDS011;59307;50.060;9.150;2023-08-06T13:28:06;0.73;;;0.63;;
71490;SDS011;59307;50.060;9.150;2023-08-06T13:30:31;3.77;;;0.83;;
71490;SDS011;59307;50.060;9.150;2023-08-06T13:32:56;1.07;;;0.70;;
71490;SDS011;59307;50.060;9.150;2023-08-06T13:35:22;1.42;;;0.70;;
71490;SDS011;59307;50.060;9.150;2023-08-06T13:37:48;0.93;;;0.60;;
71490;SDS011;59307;50.060;9.150;2023-08-06T13:40:13;0.97;;;0.70;;
71490;SDS011;59307;50.060;9.150;2023-08-06T13:42:38;2.10;;;0.63;;
71490;SDS011;59307;50.060;9.150;2023-08-06T13:45:04;1.57;;;0.60;;
71490;SDS011;59307;50.060;9.150;2023-08-06T13:47:29;1.27;;;0.55;;
71490;SDS011;59307;50.060;9.150;2023-08-06T13:49:54;0.70;;;0.67;;
71490;SDS011;59307;50.060;9.150;2023-08-06T13:52:20;1.63;;;0.60;;
71490;SDS011;59307;50.060;9.150;2023-08-06T13:54:45;1.02;;;0.70;;
71490;SDS011;59307;50.060;9.150;2023-08-06T13:57:11;1.60;;;0.70;;
71490;SDS011;59307;50.060;9.150;2023-08-06T13:59:36;2.97;;;0.70;;
71490;SDS011;59307;50.060;9.150;2023-08-06T14:02:01;1.77;;;0.70;;
71490;SDS011;59307;50.060;9.150;2023-08-06T14:04:26;1.30;;;0.60;;
71490;SDS011;59307;50.060;9.150;2023-08-06T14:06:51;1.00;;;0.70;;
71490;SDS011;59307;50.060;9.150;2023-08-06T14:09:16;0.90;;;0.73;;
71490;SDS011;59307;50.060;9.150;2023-08-06T14:11:43;1.17;;;0.73;;
71490;SDS011;59307;50.060;9.150;2023-08-06T14:14:09;1.73;;;0.77;;
71490;SDS011;59307;50.060;9.150;2023-08-06T14:16:34;2.33;;;0.90;;
71490;SDS011;59307;50.060;9.150;2023-08-06T14:18:59;1.40;;;0.93;;
71490;SDS011;59307;50.060;9.150;2023-08-06T14:21:24;1.40;;;0.90;;
71490;SDS011;59307;50.060;9.150;2023-08-06T14:23:49;1.87;;;1.00;;
71490;SDS011;59307;50.060;9.150;2023-08-06T14:26:14;0.90;;;0.80;;
71490;SDS011;59307;50.060;9.150;2023-08-06T14:28:40;2.33;;;0.90;;
71490;SDS011;59307;50.060;9.150;2023-08-06T14:31:05;1.33;;;0.90;;
71490;SDS011;59307;50.060;9.150;2023-08-06T14:33:31;1.52;;;0.95;;
71490;SDS011;59307;50.060;9.150;2023-08-06T14:35:56;2.13;;;1.03;;
71490;SDS011;59307;50.060;9.150;2023-08-06T14:38:22;1.90;;;1.10;;
71490;SDS011;59307;50.060;9.150;2023-08-06T14:40:47;2.53;;;1.10;;
71490;SDS011;59307;50.060;9.150;2023-08-06T14:43:12;3.23;;;1.30;;
71490;SDS011;59307;50.060;9.150;2023-08-06T14:45:38;3.30;;;1.10;;